This is the latest recevied weather packets stored in our database for station/object EA5HRE-13. If no packets are shown the sender has not sent any weather packets the latest 10 day(s).
| Time | Temp. | Humidity | Pressure | Rain* | Wind** | Luminosity | Snow |
|---|---|---|---|---|---|---|---|
| 1788546370 | 27.78° C | 74% | 1018.1 hPa | 0 mm | - | - | - |
| 1788545469 | 27.78° C | 73% | 1018 hPa | 0 mm | - | - | - |
| 1788544570 | 28.33° C | 73% | 1018.3 hPa | 0 mm | - | - | - |
| 1788540965 | 28.89° C | 68% | 1018.3 hPa | 0 mm | - | - | - |
| 1788539163 | 29.44° C | 67% | 1018.4 hPa | 0 mm | - | - | - |
| 1788538262 | 29.44° C | 67% | 1018.5 hPa | 0 mm | - | - | - |
| 1788537361 | 29.44° C | 67% | 1018.5 hPa | 0 mm | - | - | - |
| 1788535559 | 30° C | 65% | 1018.7 hPa | 0 mm | - | - | - |
| 1788534660 | 30.56° C | 64% | 1018.8 hPa | 0 mm | - | - | - |
| 1788533757 | 30.56° C | 63% | 1018.9 hPa | 0 mm | - | - | - |
| 1788531956 | 30.56° C | 61% | 1018.9 hPa | 0 mm | - | - | - |
| 1788531055 | 30.56° C | 60% | 1019 hPa | 0 mm | - | - | - |
| 1788530154 | 30.56° C | 60% | 1019.1 hPa | 0 mm | - | - | - |
| 1788528352 | 30.56° C | 60% | 1019.2 hPa | 0 mm | - | - | - |
| 1788527452 | 30.56° C | 60% | 1019.3 hPa | 0 mm | - | - | - |
| 1788524748 | 30.56° C | 59% | 1019.6 hPa | 0 mm | - | - | - |
| 1788523848 | 30.56° C | 59% | 1019.7 hPa | 0 mm | - | - | - |
| 1788522947 | 30° C | 63% | 1020.1 hPa | 0 mm | - | - | - |
| 1788522047 | 30° C | 64% | 1020.2 hPa | 0 mm | - | - | - |
| 1788521145 | 30° C | 65% | 1020.4 hPa | 0 mm | - | - | - |
| 1788518442 | 29.44° C | 66% | 1021 hPa | 0 mm | - | - | - |
| 1788517541 | 29.44° C | 66% | 1021.3 hPa | 0 mm | - | - | - |
| 1788516641 | 29.44° C | 66% | 1021.4 hPa | 0 mm | - | - | - |
| 1788515740 | 28.89° C | 66% | 1021.5 hPa | 0 mm | - | - | - |
| 1788513037 | 27.78° C | 67% | 1021.4 hPa | 0 mm | - | - | - |
* Rain latest hour (hover to see other rain measurements)
** Current wind speed in m/s (hover to see current wind gust speed)